createdAt,value
2019-01-13T00:00:35.362Z,30.90
2019-01-13T00:03:04.188Z,31.13
2019-01-13T00:05:32.575Z,32.13
2019-01-13T00:08:01.196Z,29.37
2019-01-13T00:10:30.363Z,30.50
2019-01-13T00:12:58.829Z,31.10
2019-01-13T00:15:27.224Z,31.37
2019-01-13T00:17:55.987Z,31.40
2019-01-13T00:20:24.375Z,31.10
2019-01-13T00:22:52.892Z,28.73
2019-01-13T00:25:21.444Z,31.13
2019-01-13T00:27:49.826Z,31.60
2019-01-13T00:30:20.111Z,31.90
2019-01-13T00:32:48.558Z,31.77
2019-01-13T00:35:17.032Z,32.30
2019-01-13T00:37:45.671Z,32.27
2019-01-13T00:40:16.483Z,31.70
2019-01-13T00:42:45.199Z,31.00
2019-01-13T00:45:15.062Z,33.30
2019-01-13T00:47:43.826Z,32.90
2019-01-13T00:50:14.920Z,34.50
2019-01-13T00:52:45.261Z,34.40
2019-01-13T00:55:15.514Z,33.47
2019-01-13T00:57:44.079Z,35.50
2019-01-13T01:00:26.197Z,35.30
2019-01-13T01:02:49.647Z,35.90
2019-01-13T01:05:18.275Z,36.40
2019-01-13T01:07:48.472Z,37.83
2019-01-13T01:10:18.335Z,37.40
2019-01-13T01:12:46.821Z,39.27
2019-01-13T01:15:16.345Z,37.47
2019-01-13T01:17:45.648Z,37.47
2019-01-13T01:20:16.181Z,38.50
2019-01-13T01:22:44.746Z,36.47
2019-01-13T01:25:15.788Z,37.43
2019-01-13T01:27:44.893Z,36.20
2019-01-13T01:30:20.573Z,37.17
2019-01-13T01:32:48.960Z,35.80
2019-01-13T01:35:18.226Z,38.73
2019-01-13T01:37:47.309Z,37.53
2019-01-13T01:40:17.930Z,39.93
2019-01-13T01:42:46.734Z,40.00
2019-01-13T01:45:17.176Z,40.63
2019-01-13T01:47:46.058Z,42.40
2019-01-13T01:50:15.310Z,44.43
2019-01-13T01:52:44.251Z,42.07
2019-01-13T01:55:15.462Z,42.43
2019-01-13T01:57:44.154Z,44.50
2019-01-13T02:00:15.450Z,41.20
2019-01-13T02:02:43.918Z,42.30
2019-01-13T02:05:12.312Z,41.17
2019-01-13T02:07:41.024Z,40.20
2019-01-13T02:10:15.136Z,37.63
2019-01-13T02:12:43.598Z,38.07
2019-01-13T02:15:15.537Z,39.40
2019-01-13T02:17:44.193Z,36.33
2019-01-13T02:20:15.432Z,36.67
2019-01-13T02:22:44.124Z,37.47
2019-01-13T02:25:15.459Z,35.80
2019-01-13T02:27:44.193Z,37.13
2019-01-13T02:30:15.939Z,35.77
2019-01-13T02:32:44.624Z,35.93
2019-01-13T02:35:13.097Z,36.60
2019-01-13T02:37:41.897Z,35.30
2019-01-13T02:40:13.301Z,35.00
2019-01-13T02:42:41.704Z,36.33
2019-01-13T02:45:13.145Z,36.23
2019-01-13T02:47:41.870Z,36.10
2019-01-13T02:50:12.319Z,37.50
2019-01-13T02:52:40.759Z,37.03
2019-01-13T02:55:09.686Z,38.97
2019-01-13T02:57:38.147Z,38.47
2019-01-13T03:00:12.145Z,39.27
2019-01-13T03:02:40.809Z,36.57
2019-01-13T03:05:11.852Z,37.77
2019-01-13T03:07:40.383Z,38.93
2019-01-13T03:10:11.821Z,37.53
2019-01-13T03:12:40.498Z,38.27
2019-01-13T03:15:19.669Z,38.30
2019-01-13T03:17:41.343Z,36.47
2019-01-13T03:20:12.150Z,36.23
2019-01-13T03:22:40.629Z,34.93
2019-01-13T03:25:12.126Z,34.80
2019-01-13T03:27:40.723Z,35.00
2019-01-13T03:30:12.161Z,35.10
2019-01-13T03:32:40.560Z,35.93
2019-01-13T03:35:09.669Z,33.73
2019-01-13T03:37:38.528Z,33.87
2019-01-13T03:40:09.978Z,33.97
2019-01-13T03:42:38.388Z,33.73
2019-01-13T03:45:09.648Z,32.90
2019-01-13T03:47:38.039Z,32.07
2019-01-13T03:50:09.506Z,31.70
2019-01-13T03:52:38.248Z,31.40
2019-01-13T03:55:08.319Z,32.17
2019-01-13T03:57:37.033Z,31.30
2019-01-13T04:00:11.828Z,30.63
2019-01-13T04:02:40.220Z,31.33
2019-01-13T04:05:08.761Z,30.03
2019-01-13T04:07:37.502Z,30.73
2019-01-13T04:10:09.136Z,30.57
2019-01-13T04:12:37.534Z,32.10
2019-01-13T04:15:08.966Z,30.90
2019-01-13T04:17:37.678Z,32.70
2019-01-13T04:20:06.821Z,33.37
2019-01-13T04:22:35.211Z,32.57
2019-01-13T04:25:04.966Z,32.80
2019-01-13T04:27:33.371Z,31.80
2019-01-13T04:30:02.184Z,31.27
2019-01-13T04:32:30.573Z,31.57
2019-01-13T04:34:58.966Z,30.97
2019-01-13T04:37:27.394Z,31.43
2019-01-13T04:39:55.780Z,32.47
2019-01-13T04:42:24.174Z,32.50
2019-01-13T04:44:52.817Z,31.50
2019-01-13T04:47:21.507Z,32.33
2019-01-13T04:49:49.898Z,31.67
2019-01-13T04:52:18.573Z,31.33
2019-01-13T04:54:46.977Z,30.50
2019-01-13T04:57:15.366Z,31.30
2019-01-13T04:59:43.785Z,32.77
2019-01-13T05:02:12.172Z,31.97
2019-01-13T05:04:40.602Z,31.40
2019-01-13T05:07:08.998Z,31.50
2019-01-13T05:09:37.729Z,29.80
2019-01-13T05:12:06.230Z,30.93
2019-01-13T05:14:34.897Z,30.40
2019-01-13T05:17:03.293Z,30.60
2019-01-13T05:19:31.677Z,30.10
2019-01-13T05:22:00.132Z,29.93
2019-01-13T05:24:28.597Z,30.13
2019-01-13T05:26:57.000Z,30.90
2019-01-13T05:29:25.709Z,30.60
2019-01-13T05:31:54.078Z,31.00
2019-01-13T05:34:22.752Z,31.17
2019-01-13T05:36:51.250Z,31.93
2019-01-13T05:39:19.659Z,32.17
2019-01-13T05:41:48.220Z,30.10
2019-01-13T05:44:16.626Z,31.70
2019-01-13T05:46:45.005Z,31.83
2019-01-13T05:49:13.400Z,29.93
2019-01-13T05:51:41.843Z,30.70
2019-01-13T05:54:10.186Z,32.07
2019-01-13T05:56:38.692Z,31.67
2019-01-13T05:59:07.149Z,29.13
2019-01-13T06:01:35.600Z,30.80
2019-01-13T06:04:04.351Z,29.60
2019-01-13T06:06:33.108Z,30.57
2019-01-13T06:09:01.493Z,30.53
2019-01-13T06:11:30.177Z,30.13
2019-01-13T06:13:58.860Z,29.97
2019-01-13T06:16:27.265Z,29.90
2019-01-13T06:18:55.733Z,29.00
2019-01-13T06:21:24.119Z,28.77
2019-01-13T06:23:52.512Z,29.70
2019-01-13T06:26:21.077Z,28.00
2019-01-13T06:28:49.775Z,28.20
2019-01-13T06:31:18.170Z,29.43
2019-01-13T06:33:46.548Z,28.13
2019-01-13T06:36:15.233Z,27.40
2019-01-13T06:38:43.639Z,26.90
2019-01-13T06:41:12.080Z,27.80
2019-01-13T06:43:40.566Z,27.43
2019-01-13T06:46:08.951Z,27.50
2019-01-13T06:48:37.335Z,27.60
2019-01-13T06:51:05.918Z,28.40
2019-01-13T06:53:34.289Z,27.73
2019-01-13T06:56:02.703Z,27.30
2019-01-13T06:58:31.110Z,26.60
2019-01-13T07:00:59.566Z,28.03
2019-01-13T07:03:28.076Z,27.00
2019-01-13T07:05:56.578Z,26.40
2019-01-13T07:08:24.972Z,26.20
2019-01-13T07:10:53.367Z,26.40
2019-01-13T07:13:21.788Z,25.90
2019-01-13T07:15:50.184Z,27.50
2019-01-13T07:18:18.578Z,26.13
2019-01-13T07:20:46.970Z,26.53
2019-01-13T07:23:15.364Z,27.03
2019-01-13T07:25:43.768Z,26.40
2019-01-13T07:28:12.175Z,24.63
2019-01-13T07:30:40.559Z,27.00
2019-01-13T07:33:09.245Z,25.07
2019-01-13T07:35:37.645Z,24.93
2019-01-13T07:38:06.028Z,25.07
2019-01-13T07:40:34.685Z,24.60
2019-01-13T07:43:03.157Z,25.00
2019-01-13T07:45:31.966Z,24.33
2019-01-13T07:48:00.459Z,24.30
2019-01-13T07:50:28.867Z,24.73
2019-01-13T07:52:57.254Z,24.53
2019-01-13T07:55:25.800Z,23.90
2019-01-13T07:57:54.571Z,24.03
2019-01-13T08:00:28.682Z,23.73
2019-01-13T08:02:57.197Z,23.97
2019-01-13T08:05:26.086Z,23.73
2019-01-13T08:07:54.556Z,24.43
2019-01-13T08:10:23.226Z,23.60
2019-01-13T08:12:51.626Z,23.20
2019-01-13T08:15:21.819Z,24.33
2019-01-13T08:17:50.656Z,23.53
2019-01-13T08:20:27.664Z,23.03
2019-01-13T08:22:56.593Z,24.10
2019-01-13T08:25:25.274Z,23.57
2019-01-13T08:27:53.662Z,24.33
2019-01-13T08:30:22.181Z,23.83
2019-01-13T08:32:50.922Z,24.53
2019-01-13T08:35:20.225Z,24.93
2019-01-13T08:37:49.009Z,24.70
2019-01-13T08:40:19.845Z,25.30
2019-01-13T08:42:48.790Z,23.40
2019-01-13T08:45:17.640Z,23.80
2019-01-13T08:47:46.129Z,23.00
2019-01-13T08:50:17.237Z,23.80
2019-01-13T08:52:45.923Z,24.77
2019-01-13T08:55:15.934Z,25.00
2019-01-13T08:57:44.776Z,23.83
2019-01-13T09:00:21.677Z,25.20
2019-01-13T09:02:50.075Z,25.80
2019-01-13T09:05:18.533Z,25.00
2019-01-13T09:07:46.914Z,26.03
2019-01-13T09:10:17.646Z,25.33
2019-01-13T09:12:46.190Z,25.17
2019-01-13T09:15:19.871Z,25.13
2019-01-13T09:17:48.612Z,26.90
2019-01-13T09:20:19.531Z,27.40
2019-01-13T09:22:47.999Z,27.53
2019-01-13T09:25:16.614Z,27.83
2019-01-13T09:27:45.083Z,26.97
2019-01-13T09:30:25.412Z,28.60
2019-01-13T09:32:53.891Z,28.03
2019-01-13T09:35:22.435Z,28.40
2019-01-13T09:37:51.811Z,30.03
2019-01-13T09:40:24.115Z,30.10
2019-01-13T09:42:53.053Z,30.37
2019-01-13T09:45:25.152Z,28.80
2019-01-13T09:47:54.461Z,28.90
2019-01-13T09:50:24.731Z,29.40
2019-01-13T09:52:53.511Z,29.50
2019-01-13T09:55:23.883Z,29.90
2019-01-13T09:57:52.454Z,30.50
2019-01-13T10:00:32.171Z,29.83
2019-01-13T10:03:01.058Z,29.30
2019-01-13T10:05:29.570Z,30.90
2019-01-13T10:07:57.953Z,32.50
2019-01-13T10:10:26.535Z,32.30
2019-01-13T10:12:55.065Z,31.63
2019-01-13T10:15:25.692Z,32.60
2019-01-13T10:17:54.599Z,33.60
2019-01-13T10:20:23.180Z,32.87
2019-01-13T10:22:51.633Z,35.13
2019-01-13T10:25:20.274Z,35.37
2019-01-13T10:27:48.874Z,34.10
2019-01-13T10:30:20.106Z,35.00
2019-01-13T10:32:54.598Z,37.13
2019-01-13T10:35:19.207Z,36.13
2019-01-13T10:37:47.608Z,36.40
2019-01-13T10:40:18.865Z,36.50
2019-01-13T10:42:47.679Z,38.57
2019-01-13T10:45:17.314Z,37.97
2019-01-13T10:47:46.540Z,37.87
2019-01-13T10:50:17.986Z,37.77
2019-01-13T10:52:47.149Z,36.53
2019-01-13T10:55:16.596Z,38.90
2019-01-13T10:57:45.167Z,37.17
2019-01-13T11:00:25.342Z,36.70
2019-01-13T11:02:54.018Z,38.13
2019-01-13T11:05:22.576Z,38.53
2019-01-13T11:07:51.296Z,38.90
2019-01-13T11:10:19.694Z,39.37
2019-01-13T11:12:48.231Z,39.67
2019-01-13T11:15:21.848Z,38.80
2019-01-13T11:17:49.187Z,39.80
2019-01-13T11:20:32.736Z,40.00
2019-01-13T11:23:02.623Z,39.60
2019-01-13T11:25:31.346Z,39.53
2019-01-13T11:27:59.733Z,36.57
2019-01-13T11:30:28.506Z,38.13
2019-01-13T11:32:57.035Z,37.43
2019-01-13T11:35:25.484Z,37.00
2019-01-13T11:37:53.879Z,37.37
2019-01-13T11:40:27.524Z,36.33
2019-01-13T11:42:56.087Z,35.40
2019-01-13T11:45:24.962Z,35.40
2019-01-13T11:47:53.410Z,36.20
2019-01-13T11:50:24.123Z,34.50
2019-01-13T11:52:52.771Z,35.43
2019-01-13T11:55:21.736Z,36.10
2019-01-13T11:57:50.597Z,34.77
2019-01-13T12:00:21.596Z,33.97
2019-01-13T12:02:49.973Z,34.53
2019-01-13T12:05:18.613Z,35.47
2019-01-13T12:07:47.607Z,34.60
2019-01-13T12:10:18.649Z,34.97
2019-01-13T12:12:47.706Z,34.20
2019-01-13T12:15:18.035Z,33.30
2019-01-13T12:17:46.752Z,33.00
2019-01-13T12:20:20.428Z,32.23
2019-01-13T12:22:49.124Z,30.77
2019-01-13T12:25:19.245Z,31.00
2019-01-13T12:27:47.980Z,32.33
2019-01-13T12:30:24.783Z,31.30
2019-01-13T12:32:53.179Z,31.77
2019-01-13T12:35:21.967Z,31.63
2019-01-13T12:37:50.498Z,30.73
2019-01-13T12:40:24.679Z,31.23
2019-01-13T12:42:53.208Z,30.87
2019-01-13T12:45:23.072Z,33.10
2019-01-13T12:47:51.686Z,31.37
2019-01-13T12:50:22.212Z,30.30
2019-01-13T12:52:50.676Z,29.57
2019-01-13T12:55:19.756Z,30.20
2019-01-13T12:57:48.167Z,29.73
2019-01-13T13:00:18.096Z,29.60
2019-01-13T13:02:46.778Z,28.63
2019-01-13T13:05:16.310Z,28.83
2019-01-13T13:07:45.234Z,28.80
2019-01-13T13:10:19.368Z,28.03
2019-01-13T13:12:47.771Z,29.20
2019-01-13T13:15:16.256Z,27.30
2019-01-13T13:17:44.637Z,28.70
2019-01-13T13:20:15.724Z,28.13
2019-01-13T13:22:44.536Z,27.93
2019-01-13T13:25:14.883Z,28.53
2019-01-13T13:27:43.349Z,28.03
2019-01-13T13:30:16.193Z,28.00
2019-01-13T13:32:45.094Z,27.93
2019-01-13T13:35:15.489Z,28.50
2019-01-13T13:37:43.909Z,28.87
2019-01-13T13:40:18.233Z,29.60
2019-01-13T13:42:47.039Z,29.83
2019-01-13T13:45:15.614Z,28.87
2019-01-13T13:47:44.390Z,27.97
2019-01-13T13:50:18.625Z,28.00
2019-01-13T13:52:47.026Z,27.73
2019-01-13T13:55:15.415Z,29.90
2019-01-13T13:57:43.794Z,28.30
2019-01-13T14:00:18.390Z,28.40
2019-01-13T14:02:47.175Z,27.50
2019-01-13T14:05:17.001Z,28.50
2019-01-13T14:07:46.019Z,29.10
2019-01-13T14:10:18.228Z,27.67
2019-01-13T14:12:46.781Z,27.60
2019-01-13T14:15:15.355Z,28.83
2019-01-13T14:17:44.581Z,28.23
2019-01-13T14:20:16.034Z,28.83
2019-01-13T14:22:44.757Z,29.23
2019-01-13T14:25:13.828Z,30.63
2019-01-13T14:27:42.815Z,29.60
2019-01-13T14:30:23.752Z,30.77
2019-01-13T14:32:52.584Z,29.37
2019-01-13T14:35:23.186Z,30.03
2019-01-13T14:37:51.740Z,30.10
2019-01-13T14:40:22.082Z,29.20
2019-01-13T14:42:50.546Z,28.23
2019-01-13T14:45:21.289Z,30.13
2019-01-13T14:47:49.670Z,29.67
2019-01-13T14:50:21.201Z,28.60
2019-01-13T14:52:50.236Z,29.93
2019-01-13T14:55:19.055Z,29.23
2019-01-13T14:57:47.769Z,29.73
2019-01-13T15:00:19.291Z,30.67
2019-01-13T15:02:47.745Z,31.03
2019-01-13T15:05:16.136Z,31.03
2019-01-13T15:07:44.528Z,31.53
2019-01-13T15:10:21.319Z,30.77
2019-01-13T15:12:49.868Z,30.40
2019-01-13T15:15:18.311Z,32.13
2019-01-13T15:17:46.756Z,30.70
2019-01-13T15:20:20.575Z,30.97
2019-01-13T15:22:51.587Z,32.50
2019-01-13T15:25:25.643Z,31.17
2019-01-13T15:27:54.029Z,30.50
2019-01-13T15:30:30.893Z,30.70
2019-01-13T15:32:59.423Z,30.40
2019-01-13T15:35:27.810Z,30.30
2019-01-13T15:37:56.364Z,31.60
2019-01-13T15:40:24.819Z,32.60
2019-01-13T15:42:53.253Z,32.23
2019-01-13T15:45:21.797Z,30.73
2019-01-13T15:47:50.201Z,31.53
2019-01-13T15:50:29.275Z,32.73
2019-01-13T15:52:57.826Z,32.73
2019-01-13T15:55:26.844Z,31.80
2019-01-13T15:57:55.358Z,32.43
2019-01-13T16:00:29.679Z,31.97
2019-01-13T16:02:58.181Z,30.13
2019-01-13T16:05:26.858Z,29.50
2019-01-13T16:07:55.529Z,29.87
2019-01-13T16:10:25.968Z,30.17
2019-01-13T16:12:54.628Z,29.67
2019-01-13T16:15:23.202Z,31.07
2019-01-13T16:17:51.911Z,30.07
2019-01-13T16:20:32.112Z,30.67
2019-01-13T16:23:00.852Z,29.80
2019-01-13T16:25:30.352Z,30.30
2019-01-13T16:27:58.832Z,31.30
2019-01-13T16:30:29.817Z,30.77
2019-01-13T16:32:58.243Z,28.90
2019-01-13T16:35:38.731Z,30.67
2019-01-13T16:38:07.130Z,30.47
2019-01-13T16:40:35.523Z,30.27
2019-01-13T16:43:04.269Z,30.57
2019-01-13T16:45:33.067Z,28.23
2019-01-13T16:48:01.487Z,29.20
2019-01-13T16:50:30.023Z,28.17
2019-01-13T16:52:58.823Z,28.90
2019-01-13T16:55:28.035Z,27.33
2019-01-13T16:57:56.493Z,27.60
2019-01-13T17:00:27.122Z,27.60
2019-01-13T17:02:57.817Z,25.87
2019-01-13T17:05:26.266Z,26.03
2019-01-13T17:07:55.027Z,26.40
2019-01-13T17:10:25.504Z,25.57
2019-01-13T17:12:54.335Z,25.07
2019-01-13T17:15:25.728Z,25.50
2019-01-13T17:17:54.375Z,25.43
2019-01-13T17:20:23.522Z,24.77
2019-01-13T17:22:51.912Z,25.73
2019-01-13T17:25:25.251Z,26.93
2019-01-13T17:27:53.675Z,25.90
2019-01-13T17:30:33.040Z,24.80
2019-01-13T17:33:01.439Z,25.97
2019-01-13T17:35:30.125Z,25.23
2019-01-13T17:37:58.508Z,25.40
2019-01-13T17:40:27.342Z,24.87
2019-01-13T17:42:55.838Z,24.57
2019-01-13T17:45:26.557Z,24.20
2019-01-13T17:47:55.085Z,23.90
2019-01-13T17:50:25.565Z,25.77
2019-01-13T17:52:54.294Z,24.80
2019-01-13T17:55:24.509Z,26.20
2019-01-13T17:57:53.374Z,24.80
2019-01-13T18:00:36.959Z,22.47
2019-01-13T18:03:08.342Z,23.00
2019-01-13T18:05:36.726Z,22.50
2019-01-13T18:08:05.134Z,22.10
2019-01-13T18:10:33.969Z,21.33
2019-01-13T18:13:02.996Z,20.20
2019-01-13T18:15:31.550Z,20.20
2019-01-13T18:17:59.971Z,19.50
2019-01-13T18:20:28.529Z,17.90
2019-01-13T18:22:57.015Z,16.53
2019-01-13T18:25:25.432Z,16.50
2019-01-13T18:27:53.822Z,16.93
2019-01-13T18:30:24.347Z,16.30
2019-01-13T18:32:52.734Z,16.80
2019-01-13T18:35:22.667Z,15.70
2019-01-13T18:37:51.357Z,16.10
2019-01-13T18:40:24.007Z,16.60
2019-01-13T18:42:52.864Z,17.53
2019-01-13T18:45:21.440Z,17.23
2019-01-13T18:47:49.877Z,16.40
2019-01-13T18:50:20.507Z,17.10
2019-01-13T18:52:58.047Z,17.13
2019-01-13T18:55:26.702Z,20.13
2019-01-13T18:57:55.387Z,18.20
2019-01-13T19:00:25.814Z,18.60
2019-01-13T19:02:54.287Z,17.87
2019-01-13T19:05:25.693Z,18.50
2019-01-13T19:07:54.076Z,42.80
2019-01-13T19:10:34.161Z,42.90
2019-01-13T19:13:08.254Z,42.70
2019-01-13T19:15:36.652Z,45.37
2019-01-13T19:18:05.368Z,44.83
2019-01-13T19:20:33.954Z,42.47
2019-01-13T19:23:02.533Z,43.00
2019-01-13T19:25:31.001Z,49.77
2019-01-13T19:27:59.400Z,43.13
2019-01-13T19:30:28.176Z,44.63
2019-01-13T19:32:56.679Z,42.77
2019-01-13T19:35:28.940Z,43.30
2019-01-13T19:37:57.376Z,46.80
2019-01-13T19:40:25.812Z,43.00
2019-01-13T19:42:54.356Z,40.97
2019-01-13T19:45:22.768Z,42.40
2019-01-13T19:47:51.463Z,41.70
2019-01-13T19:50:22.660Z,39.23
2019-01-13T19:52:51.416Z,39.07
2019-01-13T19:55:20.062Z,41.07
2019-01-13T19:57:48.571Z,38.67
2019-01-13T20:00:31.890Z,36.90
2019-01-13T20:03:00.759Z,39.70
2019-01-13T20:05:29.172Z,39.43
2019-01-13T20:07:57.633Z,37.67
2019-01-13T20:10:26.417Z,40.93
2019-01-13T20:12:54.905Z,38.47
2019-01-13T20:15:23.412Z,40.43
2019-01-13T20:17:52.157Z,38.73
2019-01-13T20:20:21.973Z,39.23
2019-01-13T20:22:50.763Z,37.80
2019-01-13T20:25:19.901Z,38.10
2019-01-13T20:27:48.648Z,37.50
2019-01-13T20:30:22.611Z,35.90
2019-01-13T20:32:51.011Z,32.47
2019-01-13T20:35:19.622Z,32.17
2019-01-13T20:37:48.026Z,28.30
2019-01-13T20:40:17.932Z,25.03
2019-01-13T20:42:47.338Z,24.23
2019-01-13T20:45:18.795Z,25.13
2019-01-13T20:47:47.175Z,24.77
2019-01-13T20:50:16.140Z,24.00
2019-01-13T20:52:44.794Z,24.37
2019-01-13T20:55:15.456Z,23.00
2019-01-13T20:57:44.245Z,23.10
2019-01-13T21:00:15.837Z,25.67
2019-01-13T21:02:44.251Z,23.30
2019-01-13T21:05:12.695Z,23.30
2019-01-13T21:07:41.366Z,21.50
2019-01-13T21:10:12.949Z,22.53
2019-01-13T21:12:41.423Z,22.77
2019-01-13T21:15:13.647Z,24.13
2019-01-13T21:17:42.031Z,22.30
2019-01-13T21:20:11.438Z,21.50
2019-01-13T21:22:39.834Z,21.83
2019-01-13T21:25:11.786Z,22.80
2019-01-13T21:27:40.377Z,22.23
2019-01-13T21:30:11.866Z,21.77
2019-01-13T21:32:40.286Z,21.37
2019-01-13T21:35:10.618Z,21.80
2019-01-13T21:37:39.015Z,22.30
2019-01-13T21:40:10.458Z,22.20
2019-01-13T21:42:38.860Z,21.57
2019-01-13T21:45:11.296Z,22.47
2019-01-13T21:47:39.818Z,21.53
2019-01-13T21:50:11.844Z,22.53
2019-01-13T21:52:40.227Z,22.00
2019-01-13T21:55:11.259Z,22.20
2019-01-13T21:57:39.676Z,21.30
2019-01-13T22:00:12.179Z,21.63
2019-01-13T22:02:41.115Z,21.30
2019-01-13T22:05:10.536Z,21.00
2019-01-13T22:07:39.814Z,21.50
2019-01-13T22:10:16.250Z,21.50
2019-01-13T22:12:44.643Z,21.70
2019-01-13T22:15:15.457Z,20.80
2019-01-13T22:17:44.028Z,21.20
2019-01-13T22:20:15.135Z,22.57
2019-01-13T22:22:43.911Z,21.17
2019-01-13T22:25:13.008Z,21.50
2019-01-13T22:27:41.553Z,20.83
2019-01-13T22:30:13.262Z,20.80
2019-01-13T22:32:41.653Z,22.20
2019-01-13T22:35:10.290Z,21.73
2019-01-13T22:37:38.676Z,24.10
2019-01-13T22:40:10.450Z,20.73
2019-01-13T22:42:39.443Z,21.73
2019-01-13T22:45:11.211Z,21.67
2019-01-13T22:47:39.604Z,21.70
2019-01-13T22:50:11.043Z,22.17
2019-01-13T22:52:39.691Z,20.30
2019-01-13T22:55:10.347Z,22.60
2019-01-13T22:57:39.041Z,19.80
2019-01-13T23:00:12.130Z,19.70
2019-01-13T23:02:40.524Z,19.93
2019-01-13T23:05:08.909Z,20.37
2019-01-13T23:07:37.386Z,19.70
2019-01-13T23:10:08.155Z,20.73
2019-01-13T23:12:36.892Z,19.90
2019-01-13T23:15:06.716Z,19.50
2019-01-13T23:17:35.387Z,20.70
2019-01-13T23:20:05.202Z,19.50
2019-01-13T23:22:33.589Z,18.60
2019-01-13T23:25:01.970Z,18.07
2019-01-13T23:27:30.438Z,19.07
2019-01-13T23:29:58.830Z,18.40
2019-01-13T23:32:27.221Z,19.80
2019-01-13T23:34:55.890Z,18.53
2019-01-13T23:37:24.269Z,18.40
2019-01-13T23:39:52.671Z,18.27
2019-01-13T23:42:21.059Z,18.50
2019-01-13T23:44:49.709Z,19.63
2019-01-13T23:47:18.162Z,20.57
2019-01-13T23:49:46.538Z,25.00
2019-01-13T23:52:14.936Z,28.00
2019-01-13T23:54:43.461Z,27.10
2019-01-13T23:57:11.918Z,25.67
2019-01-13T23:59:40.426Z,26.60
